Terminal Aerodrome Forecast
Issued by NWS

Home | Current Version | Previous Version | Text Only | Print | Product List | Glossary On
Versions: 1 2 3 4 5 6 7 8 9 10 11 12 13 14
000
FTUS46 KSEW 281100
TAFHQM
TAF
KHQM 281127Z 2812/2912 32005KT P6SM SCT015
      TEMPO 2812/2815 5SM BR BKN015
     FM281900 25009KT P6SM FEW200
     FM290300 26005KT P6SM SKC=

USA.gov is the U.S. government's official web portal to all federal, state and local government web resources and services.